Time;durP1;ratioP1;P1;durP2;ratioP2;P2;SDS_P1;SDS_P2;PMS_P1;PMS_P2;Temp;Humidity;BMP_temperature;BMP_pressure;BME280_temperature;BME280_humidity;BME280_pressure;Samples;Min_cycle;Max_cycle;Signal;HPM_P1;HPM_P2
2021/06/06 00:01:37;;;;;;;5.83;4.33;;;;;;;17.38;67.71;99141.08;1741043;82;21013;-59
2021/06/06 00:04:01;;;;;;;5.55;4.53;;;;;;;17.43;67.64;99141.23;1746276;81;21041;-59
2021/06/06 00:06:33;;;;;;;6.62;4.35;;;;;;;17.41;67.71;99137.95;1748777;81;21092;-59
2021/06/06 00:09:00;;;;;;;4.78;4.37;;;;;;;17.41;67.68;99136.60;1740157;81;21093;-61
2021/06/06 00:11:34;;;;;;;6.30;5.00;;;;;;;17.38;67.68;99127.11;1745940;81;21560;-60
2021/06/06 00:14:04;;;;;;;5.45;4.22;;;;;;;17.38;67.76;99126.28;1734248;82;20997;-60
2021/06/06 00:16:39;;;;;;;8.58;4.85;;;;;;;17.37;67.66;99125.45;1704735;82;21049;-60
2021/06/06 00:19:05;;;;;;;10.08;5.05;;;;;;;17.42;67.57;99126.95;1726987;82;20946;-61
2021/06/06 00:21:33;;;;;;;6.65;4.55;;;;;;;17.52;67.31;99117.84;1731391;82;20994;-60
2021/06/06 00:23:59;;;;;;;4.72;4.33;;;;;;;17.62;67.06;99117.37;1739251;82;21150;-60
2021/06/06 00:26:26;;;;;;;5.80;4.85;;;;;;;17.67;66.80;99121.05;1732002;82;21504;-60
2021/06/06 00:28:52;;;;;;;4.87;4.37;;;;;;;17.71;66.62;99122.23;1716154;82;21016;-61
2021/06/06 00:31:22;;;;;;;10.38;5.90;;;;;;;17.69;66.52;99117.60;1737803;81;21466;-60
2021/06/06 00:33:49;;;;;;;7.12;5.30;;;;;;;17.64;66.51;99120.66;1742138;81;21011;-61
2021/06/06 00:36:19;;;;;;;7.03;5.70;;;;;;;17.63;66.65;99114.97;1727830;82;21814;-60
2021/06/06 00:38:46;;;;;;;6.08;5.47;;;;;;;17.76;66.35;99114.81;1736927;82;21105;-61
2021/06/06 00:41:13;;;;;;;10.68;5.92;;;;;;;17.78;66.23;99112.75;1733742;82;20941;-61
2021/06/06 00:43:39;;;;;;;8.63;5.15;;;;;;;17.85;65.97;99112.14;1740906;81;20968;-60
2021/06/06 00:46:06;;;;;;;11.57;5.95;;;;;;;17.92;65.72;99110.70;1717150;83;20922;-60
2021/06/06 00:48:33;;;;;;;7.05;5.90;;;;;;;18.00;65.41;99113.08;1742841;82;21189;-61
2021/06/06 00:51:20;;;;;;;8.45;5.55;;;;;;;18.05;65.21;99107.84;1712582;82;20993;-61
2021/06/06 00:53:51;;;;;;;7.78;6.65;;;;;;;18.08;64.99;99108.22;1742032;82;20969;-61
2021/06/06 00:56:21;;;;;;;9.45;5.92;;;;;;;18.09;64.81;99105.83;1713764;82;20882;-61
2021/06/06 00:58:49;;;;;;;8.70;6.25;;;;;;;18.13;64.59;99108.35;1715249;82;20962;-60
2021/06/06 01:01:17;;;;;;;9.93;6.37;;;;;;;18.16;64.37;99104.38;1707064;82;21828;-60
2021/06/06 01:03:46;;;;;;;6.85;5.33;;;;;;;18.17;64.14;99104.69;1716136;82;21041;-60
2021/06/06 01:06:35;;;;;;;7.50;5.97;;;;;;;18.18;63.98;99100.93;1714725;83;21058;-60
2021/06/06 01:09:03;;;;;;;7.78;6.12;;;;;;;18.15;63.88;99102.21;1712242;83;20981;-60
2021/06/06 01:11:59;;;;;;;9.55;5.33;;;;;;;18.13;63.74;99097.59;1722706;83;20977;-60
2021/06/06 01:14:36;;;;;;;10.58;5.78;;;;;;;18.14;63.57;99096.55;1741543;81;21927;-60
2021/06/06 01:17:23;;;;;;;8.10;5.65;;;;;;;18.11;63.23;99089.44;1704649;82;21028;-61
2021/06/06 01:20:17;;;;;;;8.55;6.10;;;;;;;18.05;63.13;99087.66;1696996;82;21012;-60
2021/06/06 01:23:07;;;;;;;6.50;5.87;;;;;;;18.01;63.11;99081.92;1701993;81;21515;-60
2021/06/06 01:25:41;;;;;;;10.80;5.37;;;;;;;17.98;63.07;99086.92;1694752;82;21117;-59
2021/06/06 01:28:19;;;;;;;6.50;5.17;;;;;;;17.93;63.06;99089.48;1685314;83;21192;-60
2021/06/06 01:30:52;;;;;;;5.72;5.17;;;;;;;17.93;63.12;99091.66;1717081;83;21524;-60
2021/06/06 01:33:26;;;;;;;8.15;4.87;;;;;;;17.93;63.11;99093.52;1725606;83;20921;-60
2021/06/06 01:35:59;;;;;;;5.20;4.70;;;;;;;17.96;62.99;99089.86;1725467;81;20995;-60
2021/06/06 01:38:44;;;;;;;6.72;5.33;;;;;;;17.94;62.94;99086.55;1698079;82;21096;-60
2021/06/06 01:41:15;;;;;;;6.75;5.55;;;;;;;17.91;62.84;99086.20;1719483;82;21160;-60
2021/06/06 01:43:48;;;;;;;6.03;5.08;;;;;;;17.82;62.94;99091.89;1725981;82;21002;-60
2021/06/06 01:46:28;;;;;;;6.50;5.75;;;;;;;17.81;62.95;99087.54;1714281;83;21543;-61
2021/06/06 01:48:57;;;;;;;6.55;5.75;;;;;;;17.81;62.92;99086.71;1703104;82;21093;-61
2021/06/06 01:51:28;;;;;;;8.85;5.28;;;;;;;17.75;62.95;99079.02;1714487;82;20958;-59
2021/06/06 01:53:55;;;;;;;9.70;5.85;;;;;;;17.71;63.01;99080.53;1711680;82;21133;-61
2021/06/06 01:56:27;;;;;;;8.20;6.22;;;;;;;17.70;63.05;99082.91;1712081;82;20992;-60
2021/06/06 01:58:56;;;;;;;9.05;6.58;;;;;;;17.57;63.11;99083.61;1742440;81;21590;-61
2021/06/06 02:01:25;;;;;;;8.88;6.92;;;;;;;17.32;63.65;99088.18;1691682;82;21011;-60
2021/06/06 02:03:54;;;;;;;6.65;5.60;;;;;;;17.12;64.10;99092.42;1732726;82;20950;-59
2021/06/06 02:06:29;;;;;;;9.45;5.60;;;;;;;16.99;64.52;99088.00;1705833;83;21054;-60
2021/06/06 02:08:57;;;;;;;5.92;5.35;;;;;;;16.95;64.87;99093.50;1681824;83;20939;-60
2021/06/06 02:11:54;;;;;;;8.25;6.12;;;;;;;16.96;65.18;99092.47;1708457;83;20943;-59
2021/06/06 02:14:26;;;;;;;7.53;5.65;;;;;;;17.00;65.20;99088.28;1671373;83;21002;-60
2021/06/06 02:17:00;;;;;;;5.58;5.08;;;;;;;17.02;65.38;99086.22;1714239;83;20891;-60
2021/06/06 02:19:30;;;;;;;6.95;5.67;;;;;;;17.05;65.44;99088.44;1709926;83;21010;-59
2021/06/06 02:22:06;;;;;;;5.85;5.25;;;;;;;17.11;65.25;99089.42;1716472;83;21034;-60
2021/06/06 02:24:35;;;;;;;7.25;5.05;;;;;;;17.14;65.26;99084.95;1717417;83;20943;-59
2021/06/06 02:27:20;;;;;;;7.25;5.30;;;;;;;17.20;65.08;99083.56;1717395;83;21478;-61
2021/06/06 02:30:16;;;;;;;7.00;5.30;;;;;;;17.27;64.92;99076.24;1713074;83;21857;-59
2021/06/06 02:33:08;;;;;;;9.05;5.97;;;;;;;17.35;64.76;99079.67;1715132;83;21206;-60
2021/06/06 02:36:09;;;;;;;11.18;5.65;;;;;;;17.37;64.47;99082.44;1716567;83;21524;-61
2021/06/06 02:39:01;;;;;;;6.03;5.37;;;;;;;17.29;64.48;99075.49;1715750;83;21020;-60
2021/06/06 02:41:32;;;;;;;7.97;5.40;;;;;;;17.25;64.56;99075.65;1709750;83;21563;-62
2021/06/06 02:44:28;;;;;;;7.80;5.80;;;;;;;17.27;64.56;99079.45;1712475;83;21533;-60
2021/06/06 02:46:59;;;;;;;5.53;4.60;;;;;;;17.35;64.59;99077.81;1714169;83;21873;-61
2021/06/06 02:49:31;;;;;;;8.10;5.92;;;;;;;17.39;64.61;99074.17;1688712;83;21553;-60
2021/06/06 02:52:09;;;;;;;7.97;5.90;;;;;;;17.39;64.76;99075.52;1716339;83;21058;-60
2021/06/06 02:54:49;;;;;;;7.30;5.03;;;;;;;17.29;64.98;99075.49;1700900;82;20991;-60
2021/06/06 02:57:19;;;;;;;5.45;4.92;;;;;;;17.34;65.21;99078.84;1716357;83;20979;-60
2021/06/06 02:59:58;;;;;;;10.08;5.40;;;;;;;17.46;64.95;99072.22;1716963;83;21401;-60
2021/06/06 03:02:30;;;;;;;7.17;4.62;;;;;;;17.58;64.30;99070.45;1696478;83;20991;-59
2021/06/06 03:04:59;;;;;;;6.10;5.20;;;;;;;17.71;63.67;99070.29;1729107;80;20961;-62
2021/06/06 03:07:36;;;;;;;5.62;4.40;;;;;;;17.82;63.24;99081.13;1710151;81;20887;-61
2021/06/06 03:10:05;;;;;;;4.62;4.20;;;;;;;17.94;62.90;99079.81;1728908;81;21061;-60
2021/06/06 03:12:35;;;;;;;6.80;4.60;;;;;;;18.11;62.54;99075.47;1725474;83;21138;-60
2021/06/06 03:15:07;;;;;;;6.92;4.90;;;;;;;18.30;62.14;99075.69;1680684;83;21050;-60
2021/06/06 03:17:38;;;;;;;6.25;5.15;;;;;;;18.52;61.40;99075.20;1723314;82;20964;-60
2021/06/06 03:20:15;;;;;;;8.58;5.03;;;;;;;18.80;60.81;99079.40;1746726;81;20934;-60
2021/06/06 03:22:44;;;;;;;6.47;4.92;;;;;;;19.14;59.93;99080.50;1726682;81;20949;-60
2021/06/06 03:25:35;;;;;;;7.40;5.35;;;;;;;19.48;58.92;99073.74;1693041;83;21088;-60
2021/06/06 03:28:05;;;;;;;6.22;4.53;;;;;;;19.73;58.02;99070.22;1731577;81;20994;-61
2021/06/06 03:30:42;;;;;;;6.72;4.70;;;;;;;19.95;57.00;99069.05;1704902;82;20949;-59
2021/06/06 03:33:18;;;;;;;5.55;4.25;;;;;;;20.17;56.35;99071.90;1733897;82;21107;-60
2021/06/06 03:35:45;;;;;;;6.30;4.60;;;;;;;20.33;55.49;99077.91;1711922;82;21013;-60
2021/06/06 03:38:15;;;;;;;10.30;4.85;;;;;;;20.40;54.80;99077.22;1704978;82;22359;-59
2021/06/06 03:40:45;;;;;;;4.90;4.25;;;;;;;20.38;54.56;99075.83;1727484;81;20937;-59
2021/06/06 03:43:16;;;;;;;7.37;5.05;;;;;;;20.36;54.42;99070.67;1704111;82;21505;-60
2021/06/06 03:45:44;;;;;;;9.75;4.90;;;;;;;20.37;54.26;99069.59;1726705;81;21527;-60
2021/06/06 03:48:12;;;;;;;9.08;5.92;;;;;;;20.38;54.31;99071.77;1730472;82;21499;-60
2021/06/06 03:50:40;;;;;;;6.97;5.05;;;;;;;20.43;54.24;99074.03;1730151;82;21104;-59
2021/06/06 03:53:08;;;;;;;8.15;4.47;;;;;;;20.50;54.19;99071.98;1730664;82;20950;-59
2021/06/06 03:55:35;;;;;;;5.65;4.30;;;;;;;20.57;54.04;99072.64;1731237;82;20981;-59
2021/06/06 03:58:02;;;;;;;4.72;4.10;;;;;;;20.66;53.82;99068.48;1725200;82;21009;-60
2021/06/06 04:00:34;;;;;;;6.80;4.47;;;;;;;20.74;53.57;99069.96;1730433;82;21012;-59
2021/06/06 04:03:03;;;;;;;5.55;4.20;;;;;;;20.78;53.19;99072.45;1730056;81;21122;-59
2021/06/06 04:05:33;;;;;;;4.40;4.00;;;;;;;20.71;52.95;99071.27;1731011;81;20946;-59
2021/06/06 04:08:02;;;;;;;4.72;3.52;;;;;;;20.69;52.85;99066.66;1715881;81;21649;-60
2021/06/06 04:10:30;;;;;;;4.60;4.20;;;;;;;20.78;52.74;99061.64;1708021;83;20958;-60
2021/06/06 04:12:58;;;;;;;6.00;4.10;;;;;;;20.94;52.20;99063.52;1744534;81;21003;-60
2021/06/06 04:15:25;;;;;;;9.85;5.40;;;;;;;21.16;51.86;99065.80;1753758;81;21155;-60
2021/06/06 04:17:52;;;;;;;10.88;5.28;;;;;;;21.52;51.31;99061.16;1752373;81;20903;-60
2021/06/06 04:20:24;;;;;;;6.72;4.80;;;;;;;21.99;50.38;99056.61;1751377;81;21034;-61
2021/06/06 04:22:50;;;;;;;10.45;4.85;;;;;;;22.42;49.50;99047.02;1748162;81;21084;-61
2021/06/06 04:25:18;;;;;;;8.70;6.62;;;;;;;22.98;48.29;99044.27;1723063;81;20859;-61
2021/06/06 04:27:46;;;;;;;8.60;5.90;;;;;;;23.46;47.16;99043.24;1732554;81;21468;-62
2021/06/06 04:30:15;;;;;;;7.83;5.30;;;;;;;24.49;45.10;99047.64;1727198;81;20954;-61
2021/06/06 04:32:43;;;;;;;7.70;5.45;;;;;;;24.49;45.10;99047.64;1731697;81;20946;-61
2021/06/06 04:35:11;;;;;;;7.75;5.42;;;;;;;24.72;44.31;99046.83;1723823;82;21132;-62
2021/06/06 04:37:40;;;;;;;8.95;5.42;;;;;;;24.90;43.80;99053.10;1726956;81;21464;-65
2021/06/06 04:40:11;;;;;;;6.45;5.60;;;;;;;25.13;43.37;99047.91;1725979;81;20942;-57
2021/06/06 04:42:39;;;;;;;6.90;5.12;;;;;;;25.36;42.60;99047.87;1721162;81;21119;-55
2021/06/06 04:45:10;;;;;;;8.73;4.42;;;;;;;25.42;42.31;99051.41;1688157;81;21053;-58
2021/06/06 04:47:39;;;;;;;7.85;5.20;;;;;;;25.36;42.01;99047.06;1718850;81;21078;-57
2021/06/06 04:50:09;;;;;;;10.78;8.38;;;;;;;25.14;42.05;99044.64;1728156;81;21468;-59
2021/06/06 04:52:38;;;;;;;9.90;8.60;;;;;;;25.01;42.55;99046.57;1725250;81;21781;-58
2021/06/06 04:55:10;;;;;;;11.83;7.83;;;;;;;25.46;42.46;99049.23;1726820;81;21093;-62
2021/06/06 04:57:37;;;;;;;9.08;7.50;;;;;;;26.01;41.81;99037.84;1687175;83;21014;-54
2021/06/06 05:00:08;;;;;;;13.83;8.38;;;;;;;26.52;40.86;99043.80;1689770;81;21142;-60
2021/06/06 05:02:37;;;;;;;15.88;9.10;;;;;;;27.34;39.51;99038.72;1724109;81;21006;-57
2021/06/06 05:05:08;;;;;;;20.70;9.83;;;;;;;28.06;38.21;99035.69;1732219;80;21233;-56
2021/06/06 05:07:35;;;;;;;17.98;9.83;;;;;;;28.63;37.07;99037.86;1740029;80;21009;-58
2021/06/06 05:10:06;;;;;;;16.35;9.60;;;;;;;29.36;35.78;99041.52;1740171;80;21005;-59
2021/06/06 05:12:33;;;;;;;17.12;8.15;;;;;;;30.05;34.59;99040.15;1734617;80;21527;-57
2021/06/06 05:15:00;;;;;;;12.07;7.17;;;;;;;30.94;32.85;99033.67;1739422;80;21028;-61
2021/06/06 05:17:27;;;;;;;12.45;7.42;;;;;;;31.80;31.76;99033.26;1740688;81;21151;-60
2021/06/06 05:19:56;;;;;;;14.10;7.33;;;;;;;32.75;30.37;99026.16;1736675;81;20932;-53
2021/06/06 05:22:22;;;;;;;11.22;7.40;;;;;;;33.71;28.43;99027.52;1740654;81;20939;-58
2021/06/06 05:24:51;;;;;;;10.63;7.00;;;;;;;34.31;27.65;99026.56;1720421;82;21520;-60
2021/06/06 05:27:19;;;;;;;9.30;6.47;;;;;;;35.03;26.84;99021.94;1740780;81;20922;-66
2021/06/06 05:29:48;;;;;;;7.85;5.45;;;;;;;35.81;25.43;99017.11;1737306;80;21389;-65
2021/06/06 05:32:15;;;;;;;9.23;5.83;;;;;;;36.10;25.13;99024.36;1739801;80;20918;-64
2021/06/06 05:34:43;;;;;;;9.33;5.03;;;;;;;36.55;24.49;99014.45;1741371;81;20997;-67
2021/06/06 05:37:13;;;;;;;9.93;5.47;;;;;;;36.99;24.02;99018.07;1711284;82;21117;-65
2021/06/06 05:39:41;;;;;;;6.67;5.05;;;;;;;37.38;23.46;99019.89;1727857;81;20975;-64
2021/06/06 05:42:07;;;;;;;9.15;5.67;;;;;;;37.74;22.97;99016.04;1732021;80;21141;-64
2021/06/06 05:44:34;;;;;;;9.90;6.60;;;;;;;37.91;22.47;99020.44;1722736;80;20938;-65
2021/06/06 05:47:02;;;;;;;8.78;5.35;;;;;;;38.06;22.38;99020.97;1743056;80;21045;-60
2021/06/06 05:49:29;;;;;;;7.87;5.72;;;;;;;38.45;22.19;99018.48;1735703;80;21429;-60
2021/06/06 05:51:58;;;;;;;6.95;5.10;;;;;;;38.75;21.88;99017.31;1744933;81;21059;-61
2021/06/06 05:54:26;;;;;;;9.30;4.42;;;;;;;38.54;21.80;99017.66;1710588;82;21157;-57
2021/06/06 05:56:54;;;;;;;4.85;4.35;;;;;;;38.18;21.71;99018.87;1732845;81;21038;-64
2021/06/06 05:59:20;;;;;;;5.72;4.08;;;;;;;37.50;22.25;99026.75;1714349;82;21037;-62
2021/06/06 06:01:47;;;;;;;7.78;4.40;;;;;;;36.97;22.79;99021.18;1732597;82;20974;-62
2021/06/06 06:04:13;;;;;;;6.95;3.55;;;;;;;36.62;23.27;99016.03;1727383;81;21014;-62
2021/06/06 06:06:40;;;;;;;6.45;3.40;;;;;;;36.48;23.30;99015.61;1698180;82;21108;-66
2021/06/06 06:09:06;;;;;;;5.05;3.80;;;;;;;36.53;23.26;99020.12;1742373;81;21401;-67
2021/06/06 06:11:35;;;;;;;7.40;3.58;;;;;;;36.73;23.30;99015.76;1720065;81;21500;-65
2021/06/06 06:14:01;;;;;;;7.85;4.28;;;;;;;37.05;23.12;99006.95;1734433;82;20961;-65
2021/06/06 06:16:36;;;;;;;7.12;5.62;;;;;;;37.29;23.04;99011.51;1734360;82;21436;-66
2021/06/06 06:19:07;;;;;;;8.60;5.67;;;;;;;37.44;22.68;99014.31;1732630;82;20963;-66
2021/06/06 06:21:35;;;;;;;7.17;4.78;;;;;;;37.36;22.60;99011.13;1711240;82;21619;-65
2021/06/06 06:24:02;;;;;;;6.72;5.03;;;;;;;37.19;22.86;99004.53;1717592;82;21023;-64
2021/06/06 06:26:29;;;;;;;6.92;4.87;;;;;;;37.02;22.88;99007.05;1714263;83;20931;-61
2021/06/06 06:29:00;;;;;;;10.63;7.50;;;;;;;36.93;23.06;99006.98;1689307;81;21057;-60
2021/06/06 06:31:41;;;;;;;12.35;7.20;;;;;;;37.01;22.79;99008.81;1723980;81;21147;-64
2021/06/06 06:34:11;;;;;;;13.05;7.55;;;;;;;36.91;23.07;99011.50;1722403;83;21020;-61
2021/06/06 06:36:37;;;;;;;13.28;7.17;;;;;;;36.82;23.16;99011.42;1722598;83;21463;-65
2021/06/06 06:39:06;;;;;;;13.38;8.20;;;;;;;36.83;23.35;99004.73;1687446;84;21002;-62
2021/06/06 06:41:32;;;;;;;16.95;9.45;;;;;;;37.07;23.15;99006.02;1709124;83;21594;-63
2021/06/06 06:43:59;;;;;;;15.58;10.25;;;;;;;37.09;23.01;98998.95;1721846;82;21135;-64
2021/06/06 06:46:25;;;;;;;13.18;9.08;;;;;;;36.99;23.04;99002.25;1718603;82;20980;-62
2021/06/06 06:48:53;;;;;;;15.05;8.73;;;;;;;36.67;23.34;99003.88;1693474;82;21036;-62
2021/06/06 06:51:19;;;;;;;10.95;7.05;;;;;;;36.66;23.47;98999.52;1693667;82;20952;-59
2021/06/06 06:53:48;;;;;;;11.08;7.47;;;;;;;36.82;23.52;99004.49;1715144;82;21026;-59
2021/06/06 06:56:14;;;;;;;12.25;6.42;;;;;;;37.08;23.01;99005.64;1721435;83;21150;-59
2021/06/06 06:58:42;;;;;;;14.18;8.48;;;;;;;37.20;22.79;99002.58;1724405;83;20949;-60
2021/06/06 07:01:10;;;;;;;12.65;8.85;;;;;;;37.39;22.57;99001.28;1721530;81;21041;-63
2021/06/06 07:03:37;;;;;;;16.55;8.70;;;;;;;37.49;22.48;98996.61;1722029;83;21021;-55
2021/06/06 07:06:06;;;;;;;15.05;9.13;;;;;;;37.56;22.61;99001.75;1715013;82;21007;-55
2021/06/06 07:08:36;;;;;;;13.48;7.12;;;;;;;37.49;22.33;98999.38;1728924;82;21863;-56
2021/06/06 07:11:05;;;;;;;9.50;5.75;;;;;;;37.32;22.44;99003.86;1739507;81;20982;-56
2021/06/06 07:13:33;;;;;;;12.35;6.78;;;;;;;37.26;22.31;98996.99;1708061;83;20999;-59
2021/06/06 07:16:00;;;;;;;10.05;6.15;;;;;;;36.89;22.44;98999.94;1707629;82;21077;-55
2021/06/06 07:18:27;;;;;;;11.70;5.75;;;;;;;36.53;22.91;98994.02;1720830;82;20863;-59
2021/06/06 07:20:57;;;;;;;7.92;5.12;;;;;;;36.55;22.80;98998.41;1722897;82;21893;-55
2021/06/06 07:23:24;;;;;;;8.98;5.25;;;;;;;36.46;23.07;98997.94;1730302;82;21590;-55
2021/06/06 07:25:52;;;;;;;11.73;4.67;;;;;;;36.72;23.20;98995.31;1737479;82;20970;-57
2021/06/06 07:28:21;;;;;;;5.50;3.60;;;;;;;37.18;23.09;98994.59;1736658;81;21560;-55
2021/06/06 07:30:50;;;;;;;6.90;2.90;;;;;;;37.73;22.79;99001.14;1738243;82;20987;-58
2021/06/06 07:33:30;;;;;;;9.73;4.30;;;;;;;38.36;22.21;98997.63;1731247;81;21071;-60
2021/06/06 07:35:57;;;;;;;6.37;4.10;;;;;;;38.29;21.76;98994.10;1733688;81;21000;-60
2021/06/06 07:38:24;;;;;;;5.17;3.45;;;;;;;37.60;21.86;99002.63;1737400;82;21166;-62
2021/06/06 07:40:51;;;;;;;8.00;5.37;;;;;;;36.78;22.75;99002.22;1703044;82;21035;-56
2021/06/06 07:43:17;;;;;;;8.58;4.78;;;;;;;36.55;23.05;99001.17;1732432;81;20950;-54
2021/06/06 07:45:43;;;;;;;9.13;3.65;;;;;;;36.72;23.38;99004.44;1726548;81;21074;-55
2021/06/06 07:48:12;;;;;;;;;;;;;;;37.26;23.12;99001.94;1730131;81;37387;-61
2021/06/06 07:50:43;;;;;;;7.25;3.55;;;;;;;37.64;22.53;98997.98;1733704;81;20113;-62
2021/06/06 07:53:10;;;;;;;7.00;3.40;;;;;;;37.91;21.89;98996.84;1723321;81;20954;-61
2021/06/06 07:55:37;;;;;;;7.08;3.15;;;;;;;38.39;21.39;98994.13;1749399;81;21022;-61
2021/06/06 07:58:04;;;;;;;6.45;3.75;;;;;;;38.53;21.71;98997.20;1721382;81;21142;-58
2021/06/06 08:00:35;;;;;;;6.08;3.65;;;;;;;38.63;21.39;98996.03;1738849;81;21481;-58
2021/06/06 08:03:02;;;;;;;8.35;3.83;;;;;;;38.54;20.69;99000.99;1729809;81;21045;-56
2021/06/06 08:05:28;;;;;;;4.15;2.35;;;;;;;38.13;21.02;98995.55;1732741;81;21080;-55
2021/06/06 08:07:54;;;;;;;3.75;2.20;;;;;;;38.25;21.22;98993.20;1694369;82;21860;-53
2021/06/06 08:10:25;;;;;;;4.58;2.17;;;;;;;38.37;20.69;98986.75;1732580;81;20989;-57
2021/06/06 08:12:51;;;;;;;5.53;1.95;;;;;;;38.39;20.74;98987.99;1733798;81;20997;-58
2021/06/06 08:15:19;;;;;;;6.42;2.00;;;;;;;38.41;20.63;98992.59;1742780;81;21015;-61
2021/06/06 08:17:46;;;;;;;6.17;1.65;;;;;;;38.60;20.56;98989.00;1741757;81;21054;-61
2021/06/06 08:20:23;;;;;;;2.72;1.60;;;;;;;38.89;20.24;98981.46;1738271;82;20982;-63
2021/06/06 08:22:51;;;;;;;4.60;1.52;;;;;;;39.01;19.78;98983.24;1715519;82;21051;-65
2021/06/06 08:25:18;;;;;;;4.85;1.95;;;;;;;39.10;19.78;98983.81;1727551;82;21429;-65
2021/06/06 08:27:45;;;;;;;3.15;1.77;;;;;;;39.25;19.58;98978.73;1722966;81;21555;-63
2021/06/06 08:30:19;;;;;;;3.55;1.85;;;;;;;39.24;19.12;98982.10;1737830;80;20981;-62
2021/06/06 08:32:46;;;;;;;5.78;1.80;;;;;;;39.09;19.22;98978.02;1731159;82;20930;-62
2021/06/06 08:35:14;;;;;;;5.67;2.08;;;;;;;39.05;19.48;98981.34;1743600;81;21812;-64
2021/06/06 08:37:42;;;;;;;8.68;2.17;;;;;;;39.24;19.66;98977.15;1731463;82;21651;-64
2021/06/06 08:40:12;;;;;;;4.35;2.30;;;;;;;39.57;19.41;98980.66;1755490;81;20888;-63
2021/06/06 08:42:42;;;;;;;2.60;2.40;;;;;;;39.73;19.23;98977.16;1727591;82;21614;-62
2021/06/06 08:45:29;;;;;;;4.00;1.98;;;;;;;39.94;19.06;98981.64;1744189;82;21039;-61
2021/06/06 08:47:57;;;;;;;5.03;1.52;;;;;;;40.08;18.24;98978.48;1725084;81;21129;-63
2021/06/06 08:50:32;;;;;;;2.70;1.85;;;;;;;39.60;17.53;98990.45;1733850;82;21004;-64
2021/06/06 08:53:23;;;;;;;2.50;1.70;;;;;;;38.90;17.87;98982.47;1711269;81;21072;-62
2021/06/06 08:56:20;;;;;;;4.12;1.60;;;;;;;38.07;18.29;98984.50;1734212;82;20914;-62
2021/06/06 08:59:04;;;;;;;7.62;2.17;;;;;;;37.33;18.80;98988.27;1723548;82;21067;-61
2021/06/06 09:01:56;;;;;;;4.22;2.85;;;;;;;37.10;19.31;98985.29;1737667;81;22459;-63
2021/06/06 09:04:29;;;;;;;4.37;2.95;;;;;;;37.13;19.52;98991.31;1731958;82;21091;-58
2021/06/06 09:07:15;;;;;;;4.45;1.90;;;;;;;37.03;19.48;98979.58;1738184;80;21311;-58
2021/06/06 09:09:48;;;;;;;5.08;1.65;;;;;;;36.44;19.63;98978.11;1724800;83;20969;-59
2021/06/06 09:12:21;;;;;;;2.30;1.85;;;;;;;35.69;20.48;98983.92;1725734;83;21073;-61
2021/06/06 09:14:49;;;;;;;5.08;1.80;;;;;;;35.01;21.50;98981.98;1715166;83;21957;-62
2021/06/06 09:17:21;;;;;;;1.85;1.60;;;;;;;34.54;22.45;98977.33;1727188;83;21499;-62
2021/06/06 09:19:56;;;;;;;2.12;1.47;;;;;;;34.19;22.77;98977.39;1697322;83;20926;-62
2021/06/06 09:22:40;;;;;;;4.28;1.82;;;;;;;33.64;22.73;98979.77;1724233;83;21010;-62
2021/06/06 09:25:15;;;;;;;1.80;1.70;;;;;;;33.28;23.04;98974.75;1721790;83;20951;-62
2021/06/06 09:27:41;;;;;;;2.98;1.45;;;;;;;32.93;23.56;98971.83;1725414;81;21511;-62
2021/06/06 09:30:15;;;;;;;4.20;2.00;;;;;;;32.54;23.43;98968.77;1715457;83;20948;-64
2021/06/06 09:32:42;;;;;;;1.87;1.40;;;;;;;32.19;23.62;98969.91;1713748;83;21097;-62
2021/06/06 09:35:19;;;;;;;7.17;2.05;;;;;;;31.94;23.76;98967.34;1713894;83;20923;-62
2021/06/06 09:37:52;;;;;;;5.55;2.12;;;;;;;31.78;24.24;98966.78;1680040;83;21053;-61
2021/06/06 09:40:37;;;;;;;2.40;1.52;;;;;;;31.58;24.48;98973.11;1725833;81;21796;-62
2021/06/06 09:43:05;;;;;;;2.98;1.72;;;;;;;31.38;25.03;98961.88;1726512;81;21066;-62
2021/06/06 09:45:35;;;;;;;4.60;1.70;;;;;;;31.19;25.45;98963.50;1705601;83;21603;-62
2021/06/06 09:48:16;;;;;;;4.83;1.75;;;;;;;31.08;25.58;98958.84;1715833;82;21072;-62
2021/06/06 09:50:51;;;;;;;3.58;1.32;;;;;;;31.01;26.46;98965.92;1739891;81;21057;-62
2021/06/06 09:53:27;;;;;;;1.47;1.37;;;;;;;30.90;26.68;98964.54;1719473;82;21135;-62
2021/06/06 09:56:08;;;;;;;3.42;1.60;;;;;;;30.75;26.29;98968.51;1719564;82;21584;-63
2021/06/06 09:58:38;;;;;;;5.30;1.50;;;;;;;30.60;26.25;98973.58;1706573;82;21010;-62
2021/06/06 10:01:35;;;;;;;2.15;1.30;;;;;;;30.34;26.70;98976.11;1739130;82;21022;-62
2021/06/06 10:04:10;;;;;;;3.00;1.52;;;;;;;30.03;27.06;98976.02;1748548;81;20927;-61
2021/06/06 10:06:40;;;;;;;2.77;1.57;;;;;;;29.59;27.42;98982.73;1726514;81;21113;-61
2021/06/06 10:09:21;;;;;;;4.67;1.47;;;;;;;29.10;27.83;98978.72;1738420;81;20887;-61
2021/06/06 10:12:03;;;;;;;4.05;1.62;;;;;;;28.64;27.78;98989.70;1737763;82;20994;-61
2021/06/06 10:15:03;;;;;;;5.80;1.85;;;;;;;28.34;28.41;98978.41;1747444;81;21014;-62
2021/06/06 10:17:38;;;;;;;3.50;1.50;;;;;;;28.28;28.71;98991.91;1730154;81;21432;-62
2021/06/06 10:20:22;;;;;;;3.55;1.45;;;;;;;28.25;29.00;98989.76;1720468;82;20890;-61
2021/06/06 10:23:00;;;;;;;1.75;1.37;;;;;;;28.29;29.20;98986.70;1756103;80;21507;-62
2021/06/06 10:25:52;;;;;;;4.83;1.32;;;;;;;28.30;29.57;98985.02;1738075;82;21031;-63
2021/06/06 10:28:33;;;;;;;4.20;1.50;;;;;;;28.45;29.99;98986.14;1729064;82;21070;-62
2021/06/06 10:31:14;;;;;;;4.40;1.70;;;;;;;28.64;29.50;98979.30;1723240;82;20895;-61
2021/06/06 10:33:52;;;;;;;8.05;1.40;;;;;;;28.81;29.51;98974.06;1713806;82;21131;-61
2021/06/06 10:36:22;;;;;;;4.28;1.52;;;;;;;29.00;29.62;98963.04;1733292;82;20905;-61
2021/06/06 10:38:48;;;;;;;2.17;1.45;;;;;;;29.26;29.49;98962.28;1708179;82;21482;-62
2021/06/06 10:41:33;;;;;;;2.37;1.72;;;;;;;29.52;29.22;98961.75;1733980;82;20996;-62
2021/06/06 10:44:10;;;;;;;3.12;2.00;;;;;;;29.69;28.60;98965.52;1735288;82;21004;-62
2021/06/06 10:46:45;;;;;;;4.22;1.72;;;;;;;29.75;29.05;98961.52;1733695;82;21151;-62
2021/06/06 10:49:26;;;;;;;2.08;1.98;;;;;;;29.91;28.77;98962.84;1713671;82;20974;-62
2021/06/06 10:52:08;;;;;;;4.95;1.50;;;;;;;29.98;28.46;98956.95;1733617;82;21545;-63
2021/06/06 10:54:40;;;;;;;1.55;1.40;;;;;;;30.05;27.97;98960.62;1743443;82;21517;-62
2021/06/06 10:57:29;;;;;;;4.55;1.40;;;;;;;30.07;27.65;98955.63;1733423;82;21088;-62
2021/06/06 11:00:22;;;;;;;1.60;1.30;;;;;;;29.92;27.42;98955.43;1725097;82;21030;-64
2021/06/06 11:03:24;;;;;;;2.40;1.30;;;;;;;29.93;27.51;98947.47;1757151;81;21542;-62
2021/06/06 11:06:00;;;;;;;8.58;1.60;;;;;;;30.03;27.85;98946.41;1711124;82;21001;-62
2021/06/06 11:08:37;;;;;;;1.67;1.57;;;;;;;30.12;27.95;98945.35;1675313;84;20915;-62
2021/06/06 11:11:17;;;;;;;3.12;1.62;;;;;;;30.18;27.52;98933.15;1709145;83;21006;-62
2021/06/06 11:14:02;;;;;;;1.25;1.20;;;;;;;30.11;27.41;98935.52;1681145;84;20949;-62
2021/06/06 11:16:37;;;;;;;2.62;1.30;;;;;;;30.09;28.11;98922.66;1675584;84;21091;-62
2021/06/06 11:19:15;;;;;;;3.40;2.60;;;;;;;30.16;28.08;98924.98;1677216;83;20968;-62
2021/06/06 11:21:52;;;;;;;3.62;2.10;;;;;;;30.23;27.78;98925.34;1708429;82;21017;-62
2021/06/06 11:24:43;;;;;;;1.20;1.15;;;;;;;30.20;27.11;98920.48;1734366;82;20997;-62
2021/06/06 11:27:19;;;;;;;2.52;1.60;;;;;;;30.09;27.48;98918.55;1689129;82;20883;-61
2021/06/06 11:29:52;;;;;;;3.87;1.35;;;;;;;29.95;26.94;98917.80;1704518;82;21520;-65
2021/06/06 11:32:45;;;;;;;2.45;1.40;;;;;;;29.80;26.74;98931.87;1709507;82;21060;-62
2021/06/06 11:35:38;;;;;;;6.00;1.60;;;;;;;29.69;27.26;98934.55;1684541;84;21056;-64
2021/06/06 11:38:30;;;;;;;3.65;1.37;;;;;;;29.48;27.63;98943.77;1678226;84;20968;-64
2021/06/06 11:41:32;;;;;;;7.72;1.30;;;;;;;29.23;28.23;98938.79;1709672;82;21180;-65
2021/06/06 11:44:24;;;;;;;2.27;0.88;;;;;;;29.01;27.52;98935.92;1709959;82;20987;-63
2021/06/06 11:47:10;;;;;;;1.67;0.85;;;;;;;28.84;26.87;98924.19;1708942;82;21055;-60
2021/06/06 11:49:54;;;;;;;1.02;0.50;;;;;;;28.70;27.20;98927.48;1692059;82;21019;-58
2021/06/06 11:52:35;;;;;;;0.70;0.70;;;;;;;28.53;26.30;98929.92;1686578;84;21470;-60
2021/06/06 11:55:17;;;;;;;1.62;0.90;;;;;;;28.39;25.34;98932.65;1677255;84;21202;-63
2021/06/06 11:57:51;;;;;;;1.62;0.65;;;;;;;28.36;25.97;98933.79;1708392;82;20946;-63
2021/06/06 12:00:39;;;;;;;3.58;1.10;;;;;;;28.34;26.13;98934.66;1660028;83;21060;-64